createdAt,value
2022-08-30T00:00:15.245Z,6.70
2022-08-30T00:03:14.579Z,6.38
2022-08-30T00:12:53.632Z,7.13
2022-08-30T00:18:52.482Z,6.53
2022-08-30T00:21:41.875Z,7.03
2022-08-30T00:24:29.225Z,7.40
2022-08-30T00:27:21.914Z,6.97
2022-08-30T00:30:18.323Z,6.90
2022-08-30T00:33:09.137Z,7.57
2022-08-30T00:36:03.182Z,7.57
2022-08-30T00:42:03.814Z,7.25
2022-08-30T00:44:55.469Z,8.32
2022-08-30T00:47:43.104Z,7.32
2022-08-30T00:51:01.368Z,7.82
2022-08-30T00:54:01.348Z,7.63
2022-08-30T00:56:49.703Z,7.93
2022-08-30T00:59:36.902Z,8.02
2022-08-30T01:02:25.730Z,8.23
2022-08-30T01:05:17.432Z,7.85
2022-08-30T01:08:15.584Z,7.65
2022-08-30T01:11:39.886Z,7.88
2022-08-30T01:14:42.524Z,7.72
2022-08-30T01:17:29.960Z,8.00
2022-08-30T01:20:49.512Z,8.43
2022-08-30T01:23:48.382Z,9.18
2022-08-30T01:26:36.976Z,8.00
2022-08-30T01:29:25.882Z,9.07
2022-08-30T01:32:24.209Z,8.88
2022-08-30T01:35:22.250Z,7.75
2022-08-30T01:38:10.887Z,8.65
2022-08-30T01:41:00.970Z,9.27
2022-08-30T01:43:50.398Z,9.13
2022-08-30T01:46:42.705Z,8.80
2022-08-30T01:49:32.833Z,10.13
2022-08-30T01:52:22.509Z,9.88
2022-08-30T01:55:11.370Z,9.98
2022-08-30T01:58:14.904Z,10.35
2022-08-30T02:01:22.149Z,10.55
2022-08-30T02:04:11.824Z,9.90
2022-08-30T02:06:59.402Z,10.85
2022-08-30T02:09:46.527Z,10.40
2022-08-30T02:12:34.908Z,10.65
2022-08-30T02:15:24.202Z,9.35
2022-08-30T02:21:27.826Z,10.70
2022-08-30T02:24:15.180Z,10.63
2022-08-30T02:27:02.339Z,10.13
2022-08-30T02:29:55.033Z,9.68
2022-08-30T02:32:42.507Z,10.07
2022-08-30T02:35:30.037Z,10.38
2022-08-30T02:38:20.273Z,10.70
2022-08-30T02:41:07.670Z,11.15
2022-08-30T02:44:01.376Z,11.43
2022-08-30T02:46:48.520Z,10.75
2022-08-30T02:49:37.884Z,11.35
2022-08-30T02:52:31.030Z,11.20
2022-08-30T02:55:19.219Z,10.80
2022-08-30T02:58:07.038Z,11.70
2022-08-30T03:01:01.835Z,10.88
2022-08-30T03:03:49.490Z,11.52
2022-08-30T03:06:45.275Z,11.85
2022-08-30T03:09:36.493Z,10.80
2022-08-30T03:12:26.651Z,11.60
2022-08-30T03:15:14.564Z,11.55
2022-08-30T03:18:10.981Z,11.30
2022-08-30T03:21:12.748Z,11.25
2022-08-30T03:23:59.875Z,11.35
2022-08-30T03:26:49.264Z,10.90
2022-08-30T03:29:36.554Z,11.65
2022-08-30T03:32:30.906Z,12.27
2022-08-30T03:35:19.735Z,12.77
2022-08-30T03:38:27.139Z,13.15
2022-08-30T03:41:28.962Z,12.93
2022-08-30T03:44:17.385Z,12.80
2022-08-30T03:47:05.369Z,13.43
2022-08-30T03:49:56.387Z,13.80
2022-08-30T03:52:56.643Z,13.77
2022-08-30T03:55:45.880Z,13.45
2022-08-30T03:58:34.678Z,13.88
2022-08-30T04:01:24.597Z,14.50
2022-08-30T04:04:12.138Z,14.70
2022-08-30T04:07:06.535Z,15.23
2022-08-30T04:09:56.081Z,14.25
2022-08-30T04:13:26.823Z,13.30
2022-08-30T04:16:23.540Z,13.30
2022-08-30T04:19:44.116Z,13.02
2022-08-30T04:22:31.231Z,13.70
2022-08-30T04:25:18.629Z,13.80
2022-08-30T04:28:09.155Z,14.05
2022-08-30T04:30:56.372Z,13.85
2022-08-30T04:33:44.443Z,15.80
2022-08-30T04:36:31.591Z,15.38
2022-08-30T04:39:19.732Z,15.30
2022-08-30T04:42:06.996Z,15.35
2022-08-30T04:44:54.102Z,15.00
2022-08-30T04:47:42.126Z,14.80
2022-08-30T04:50:32.069Z,14.73
2022-08-30T04:53:19.218Z,15.13
2022-08-30T04:56:18.088Z,15.70
2022-08-30T04:59:05.234Z,14.63
2022-08-30T05:01:52.444Z,14.52
2022-08-30T05:04:59.654Z,14.43
2022-08-30T05:07:46.854Z,14.25
2022-08-30T05:10:34.458Z,15.23
2022-08-30T05:13:26.258Z,13.68
2022-08-30T05:16:22.787Z,14.63
2022-08-30T05:19:10.056Z,13.13
2022-08-30T05:21:57.213Z,13.32
2022-08-30T05:24:44.591Z,13.48
2022-08-30T05:27:34.507Z,13.15
2022-08-30T05:30:26.222Z,13.13
2022-08-30T05:33:13.474Z,13.65
2022-08-30T05:36:00.542Z,13.38
2022-08-30T05:38:51.380Z,13.15
2022-08-30T05:41:39.420Z,12.98
2022-08-30T05:44:26.852Z,12.73
2022-08-30T05:47:14.003Z,12.90
2022-08-30T05:50:07.071Z,12.38
2022-08-30T05:52:54.186Z,13.48
2022-08-30T05:55:46.055Z,13.60
2022-08-30T05:58:35.922Z,13.17
2022-08-30T06:01:31.777Z,13.85
2022-08-30T06:04:18.990Z,12.63
2022-08-30T06:07:06.572Z,12.60
2022-08-30T06:09:53.708Z,12.05
2022-08-30T06:12:43.344Z,11.40
2022-08-30T06:15:55.257Z,11.40
2022-08-30T06:18:47.949Z,11.05
2022-08-30T06:21:37.050Z,9.57
2022-08-30T06:24:41.023Z,9.93
2022-08-30T06:39:11.757Z,9.40
2022-08-30T07:05:37.536Z,8.32
2022-08-30T07:08:32.450Z,8.32
2022-08-30T07:11:35.120Z,8.85
2022-08-30T07:14:22.806Z,8.43
2022-08-30T07:17:32.623Z,7.50
2022-08-30T07:20:21.635Z,8.23
2022-08-30T07:23:15.140Z,7.40
2022-08-30T07:26:14.705Z,7.20
2022-08-30T07:29:18.062Z,7.47
2022-08-30T07:32:10.507Z,7.40
2022-08-30T07:35:02.442Z,7.13
2022-08-30T07:41:02.133Z,7.68
2022-08-30T07:43:51.971Z,6.93
2022-08-30T07:51:30.570Z,7.43
2022-08-30T07:59:26.412Z,6.47
2022-08-30T08:03:12.981Z,6.60
2022-08-30T08:06:03.689Z,7.30
2022-08-30T08:09:04.352Z,6.10
2022-08-30T08:20:34.915Z,6.53
2022-08-30T08:23:36.273Z,6.57
2022-08-30T08:31:18.227Z,6.53
2022-08-30T08:47:21.369Z,5.88
2022-08-30T09:04:53.664Z,5.68
2022-08-30T09:09:04.935Z,4.65
2022-08-30T09:39:39.376Z,4.47
2022-08-30T09:42:44.300Z,4.10
2022-08-30T09:46:08.428Z,4.32
2022-08-30T09:49:41.641Z,4.20
2022-08-30T09:52:56.002Z,3.78
2022-08-30T09:56:10.552Z,3.70
2022-08-30T10:03:36.308Z,3.40
2022-08-30T10:15:21.109Z,4.10
2022-08-30T10:18:30.416Z,3.95
2022-08-30T10:22:04.217Z,3.40
2022-08-30T10:25:00.971Z,3.50
2022-08-30T10:31:40.251Z,3.53
2022-08-30T10:34:57.931Z,3.30
2022-08-30T10:38:16.905Z,3.45
2022-08-30T10:41:44.038Z,3.42
2022-08-30T10:45:02.626Z,3.17
2022-08-30T10:48:27.124Z,3.83
2022-08-30T10:51:44.987Z,3.63
2022-08-30T10:54:57.721Z,3.10
2022-08-30T10:58:06.384Z,3.10
2022-08-30T11:01:20.358Z,3.22
2022-08-30T11:19:06.814Z,2.72
2022-08-30T11:22:26.564Z,3.17
2022-08-30T11:25:39.703Z,2.85
2022-08-30T11:28:44.185Z,3.38
2022-08-30T11:39:49.691Z,3.75
2022-08-30T11:42:49.538Z,3.35
2022-08-30T11:45:48.795Z,3.00
2022-08-30T11:49:55.240Z,3.53
2022-08-30T11:53:31.205Z,3.78
2022-08-30T12:00:51.306Z,4.15
2022-08-30T12:03:42.519Z,3.60
2022-08-30T12:06:53.696Z,3.00
2022-08-30T12:09:41.229Z,3.47
2022-08-30T12:12:38.017Z,4.00
2022-08-30T12:15:50.197Z,3.63
2022-08-30T12:19:10.711Z,3.58
2022-08-30T12:30:48.388Z,3.30
2022-08-30T12:33:28.890Z,3.75
2022-08-30T12:37:09.843Z,3.72
2022-08-30T12:40:46.248Z,3.47
2022-08-30T12:44:09.577Z,3.60
2022-08-30T12:47:05.247Z,4.00
2022-08-30T12:49:59.014Z,3.72
2022-08-30T12:54:05.072Z,3.45
2022-08-30T12:57:19.253Z,3.60
2022-08-30T13:00:35.851Z,3.30
2022-08-30T13:03:38.548Z,2.90
2022-08-30T13:06:55.390Z,3.20
2022-08-30T13:09:46.305Z,3.30
2022-08-30T13:12:36.124Z,2.90
2022-08-30T13:15:32.616Z,3.00
2022-08-30T13:18:32.528Z,2.92
2022-08-30T13:21:33.203Z,3.53
2022-08-30T13:24:25.495Z,3.17
2022-08-30T13:27:51.082Z,3.30
2022-08-30T13:30:40.706Z,3.08
2022-08-30T13:33:28.693Z,3.30
2022-08-30T13:36:19.096Z,3.85
2022-08-30T13:39:10.543Z,4.20
2022-08-30T13:42:31.706Z,3.60
2022-08-30T13:45:40.929Z,3.30
2022-08-30T13:48:15.289Z,3.65
2022-08-30T13:51:04.896Z,3.50
2022-08-30T13:53:54.026Z,3.33
2022-08-30T13:56:43.972Z,3.30
2022-08-30T13:59:33.402Z,3.55
2022-08-30T14:02:22.760Z,3.60
2022-08-30T14:05:37.454Z,3.15
2022-08-30T14:11:31.279Z,3.53
2022-08-30T14:14:41.969Z,3.38
2022-08-30T14:17:32.821Z,3.60
2022-08-30T14:20:23.402Z,3.60
2022-08-30T14:23:12.242Z,3.22
2022-08-30T14:26:05.391Z,3.30
2022-08-30T14:29:47.866Z,3.08
2022-08-30T14:33:34.707Z,3.28
2022-08-30T14:38:58.405Z,2.90
2022-08-30T14:41:52.746Z,3.15
2022-08-30T14:44:56.997Z,3.60
2022-08-30T14:48:54.103Z,3.58
2022-08-30T14:52:09.806Z,3.13
2022-08-30T14:54:42.728Z,3.22
2022-08-30T14:57:32.056Z,2.97
2022-08-30T15:00:23.246Z,2.50
2022-08-30T15:03:15.490Z,3.08
2022-08-30T15:06:07.331Z,3.45
2022-08-30T15:08:58.559Z,3.00
2022-08-30T15:11:46.908Z,3.20
2022-08-30T15:14:34.674Z,3.40
2022-08-30T15:17:24.482Z,3.40
2022-08-30T15:20:18.728Z,3.08
2022-08-30T15:23:09.380Z,3.53
2022-08-30T15:25:58.059Z,3.30
2022-08-30T15:28:45.692Z,3.22
2022-08-30T15:31:35.983Z,3.30
2022-08-30T15:34:28.018Z,3.95
2022-08-30T15:37:22.463Z,3.47
2022-08-30T15:40:32.922Z,3.33
2022-08-30T15:43:22.438Z,3.88
2022-08-30T15:46:32.269Z,3.28
2022-08-30T15:49:24.557Z,4.00
2022-08-30T15:52:11.698Z,3.65
2022-08-30T15:55:01.056Z,4.00
2022-08-30T15:57:50.809Z,4.00
2022-08-30T16:00:44.870Z,3.63
2022-08-30T16:03:37.935Z,4.38
2022-08-30T16:06:31.216Z,3.53
2022-08-30T16:09:21.620Z,3.85
2022-08-30T16:12:11.545Z,4.60
2022-08-30T16:15:01.161Z,4.07
2022-08-30T16:17:51.402Z,4.20
2022-08-30T16:20:40.679Z,3.80
2022-08-30T16:23:27.840Z,4.30
2022-08-30T16:26:20.656Z,4.10
2022-08-30T16:29:15.297Z,3.83
2022-08-30T16:32:05.813Z,3.80
2022-08-30T16:34:53.396Z,4.20
2022-08-30T16:37:42.209Z,3.63
2022-08-30T16:40:32.853Z,4.10
2022-08-30T16:43:23.928Z,4.60
2022-08-30T16:46:16.284Z,3.80
2022-08-30T16:49:06.022Z,4.05
2022-08-30T16:51:56.144Z,4.28
2022-08-30T16:54:46.109Z,3.65
2022-08-30T16:57:46.627Z,3.42
2022-08-30T17:00:37.252Z,4.28
2022-08-30T17:03:24.630Z,3.65
2022-08-30T17:06:15.015Z,4.38
2022-08-30T17:09:07.374Z,4.18
2022-08-30T17:11:59.218Z,4.50
2022-08-30T17:14:47.417Z,3.88
2022-08-30T17:17:35.070Z,3.92
2022-08-30T17:20:24.265Z,4.28
2022-08-30T17:23:13.250Z,4.72
2022-08-30T17:26:01.645Z,4.40
2022-08-30T17:28:50.958Z,3.97
2022-08-30T17:31:51.304Z,4.05
2022-08-30T17:34:54.794Z,4.53
2022-08-30T17:37:43.076Z,4.45
2022-08-30T17:40:30.602Z,4.35
2022-08-30T17:43:18.324Z,4.47
2022-08-30T17:46:05.922Z,4.38
2022-08-30T17:49:04.710Z,4.20
2022-08-30T17:51:56.276Z,4.55
2022-08-30T17:54:44.358Z,4.93
2022-08-30T17:57:51.245Z,5.18
2022-08-30T18:00:41.019Z,4.57
2022-08-30T18:03:28.343Z,4.65
2022-08-30T18:06:16.143Z,4.90
2022-08-30T18:09:13.124Z,5.30
2022-08-30T18:12:03.885Z,4.63
2022-08-30T18:15:44.235Z,5.00
2022-08-30T18:18:59.890Z,5.05
2022-08-30T18:22:36.589Z,4.63
2022-08-30T18:44:43.394Z,5.50
2022-08-30T18:44:43.861Z,5.30
2022-08-30T18:47:31.634Z,5.07
2022-08-30T18:50:18.773Z,5.68
2022-08-30T18:53:14.362Z,4.82
2022-08-30T18:56:16.889Z,4.80
2022-08-30T18:59:08.043Z,4.78
2022-08-30T19:04:51.445Z,5.63
2022-08-30T19:10:48.261Z,4.93
2022-08-30T19:13:37.570Z,4.90
2022-08-30T19:16:24.747Z,5.20
2022-08-30T19:19:15.610Z,5.45
2022-08-30T19:22:02.985Z,5.18
2022-08-30T19:24:51.212Z,5.40
2022-08-30T19:27:40.187Z,4.55
2022-08-30T19:30:29.879Z,4.47
2022-08-30T19:33:17.767Z,5.30
2022-08-30T19:36:07.978Z,4.85
2022-08-30T19:38:57.549Z,4.72
2022-08-30T19:41:44.708Z,4.70
2022-08-30T19:44:34.041Z,5.03
2022-08-30T19:47:23.667Z,4.57
2022-08-30T19:50:11.549Z,4.70
2022-08-30T19:52:58.744Z,4.68
2022-08-30T19:55:46.187Z,3.88
2022-08-30T19:58:33.554Z,4.13
2022-08-30T20:01:33.149Z,4.63
2022-08-30T20:04:21.361Z,3.92
2022-08-30T20:07:10.333Z,4.78
2022-08-30T20:10:06.328Z,4.60
2022-08-30T20:12:53.801Z,4.40
2022-08-30T20:15:41.076Z,4.72
2022-08-30T20:18:29.001Z,4.05
2022-08-30T20:21:16.754Z,4.22
2022-08-30T20:24:31.931Z,5.63
2022-08-30T20:27:15.531Z,4.88
2022-08-30T20:30:04.912Z,4.65
2022-08-30T20:32:55.170Z,3.92
2022-08-30T20:35:48.982Z,4.00
2022-08-30T20:38:37.104Z,4.35
2022-08-30T20:41:25.720Z,3.85
2022-08-30T20:44:13.666Z,4.10
2022-08-30T20:47:06.875Z,4.10
2022-08-30T20:49:54.380Z,4.20
2022-08-30T20:52:42.356Z,4.30
2022-08-30T20:55:34.245Z,4.70
2022-08-30T20:58:22.152Z,4.18
2022-08-30T21:01:15.920Z,3.35
2022-08-30T21:04:03.679Z,4.07
2022-08-30T21:06:53.423Z,4.10
2022-08-30T21:09:45.211Z,4.18
2022-08-30T21:12:32.581Z,4.20
2022-08-30T21:15:36.807Z,3.58
2022-08-30T21:18:29.527Z,3.92
2022-08-30T21:21:21.415Z,3.80
2022-08-30T21:24:12.641Z,3.80
2022-08-30T21:27:03.521Z,4.57
2022-08-30T21:29:50.777Z,3.85
2022-08-30T21:32:40.501Z,3.95
2022-08-30T21:35:49.369Z,4.13
2022-08-30T21:38:36.552Z,4.03
2022-08-30T21:41:25.195Z,4.15
2022-08-30T21:44:18.642Z,3.75
2022-08-30T21:47:05.942Z,4.22
2022-08-30T21:49:53.023Z,3.92
2022-08-30T21:52:40.399Z,3.95
2022-08-30T21:55:29.896Z,4.43
2022-08-30T21:58:19.406Z,3.72
2022-08-30T22:01:24.982Z,3.72
2022-08-30T22:04:14.674Z,4.13
2022-08-30T22:07:03.187Z,3.90
2022-08-30T22:09:50.637Z,3.50
2022-08-30T22:12:41.582Z,4.50
2022-08-30T22:15:31.542Z,3.83
2022-08-30T22:18:21.541Z,3.95
2022-08-30T22:21:10.739Z,3.63
2022-08-30T22:23:57.982Z,4.10
2022-08-30T22:26:48.532Z,4.22
2022-08-30T22:29:39.366Z,3.85
2022-08-30T22:32:26.451Z,3.95
2022-08-30T22:35:13.763Z,4.10
2022-08-30T22:38:02.317Z,3.85
2022-08-30T22:40:51.737Z,4.13
2022-08-30T22:43:43.625Z,4.85
2022-08-30T22:46:33.836Z,3.67
2022-08-30T22:49:22.040Z,4.18
2022-08-30T22:52:09.579Z,4.70
2022-08-30T22:54:57.085Z,3.67
2022-08-30T22:57:44.434Z,4.35
2022-08-30T23:00:34.486Z,4.07
2022-08-30T23:03:21.654Z,3.63
2022-08-30T23:06:09.074Z,4.10
2022-08-30T23:08:56.184Z,4.00
2022-08-30T23:11:44.691Z,4.40
2022-08-30T23:14:31.980Z,4.15
2022-08-30T23:17:21.852Z,4.18
2022-08-30T23:20:10.948Z,3.60
2022-08-30T23:23:00.766Z,5.05
2022-08-30T23:26:06.331Z,3.72
2022-08-30T23:29:12.967Z,4.03
2022-08-30T23:32:19.213Z,4.03
2022-08-30T23:35:29.694Z,4.00
2022-08-30T23:38:37.580Z,3.42
2022-08-30T23:41:43.693Z,3.83
2022-08-30T23:44:49.576Z,3.90
2022-08-30T23:47:56.669Z,4.47
2022-08-30T23:51:02.146Z,4.32
2022-08-30T23:54:08.680Z,4.18
2022-08-30T23:57:14.533Z,3.97
